Hensley, Arkansas
Current Conditions -  °F | °C
As of 6:53 PM on Monday 24 Nov 2014 (Local Time) from KLIT Reporting Station
Clear Clear  
Wind Chill: 51°   Ceiling: Unl
Heat Index: 51°   Visibility: 10mi
Dew Point: 24°   Wind: 5mph
Humidity: 35%   Direction: 230°SW
Pressure: 30.02"   Gusts: NA
Location:  34.51°N, 92.21°W
Report Text: KLIT 250053Z 23004KT 10SM CLR 11/M04 A3002 RMK AO2 SLP168 T01061044
Loading
Personal Weather Stations






























Interactive Weather Map New forecast layout! Learn more

10-Day Weather Forecast

Advertisements
Track Severe Weather on mobile